Time;durP1;ratioP1;P1;durP2;ratioP2;P2;SDS_P1;SDS_P2;PMS_P1;PMS_P2;Temp;Humidity;BMP_temperature;BMP_pressure;BME280_temperature;BME280_humidity;BME280_pressure;Samples;Min_cycle;Max_cycle;Signal;HPM_P1;HPM_P2
2022/06/13 00:02:28;;;;;;;4.90;1.90;;;24.10;70.30;;;;;;4995146;28;20193;-68
2022/06/13 00:04:54;;;;;;;3.30;2.37;;;24.10;70.40;;;;;;4994229;28;20410;-68
2022/06/13 00:07:20;;;;;;;2.73;1.90;;;24.10;70.40;;;;;;4994010;28;20818;-69
2022/06/13 00:09:46;;;;;;;5.37;2.17;;;24.10;70.50;;;;;;4993321;28;20440;-68
2022/06/13 00:12:14;;;;;;;2.20;1.87;;;24.10;70.50;;;;;;4977709;28;20449;-68
2022/06/13 00:14:40;;;;;;;4.10;2.20;;;24.10;70.60;;;;;;4977903;28;20189;-68
2022/06/13 00:17:11;;;;;;;4.67;2.43;;;24.00;70.60;;;;;;4961872;28;20422;-68
2022/06/13 00:19:39;;;;;;;4.47;2.50;;;24.00;70.50;;;;;;4977611;28;20224;-69
2022/06/13 00:22:06;;;;;;;5.50;2.50;;;24.00;70.60;;;;;;4994739;28;20441;-69
2022/06/13 00:24:37;;;;;;;4.13;2.10;;;24.00;70.70;;;;;;4977838;28;20404;-68
2022/06/13 00:27:03;;;;;;;2.80;1.87;;;23.90;70.70;;;;;;4977502;28;20504;-68
2022/06/13 00:29:29;;;;;;;2.30;2.10;;;23.90;70.80;;;;;;4977536;28;20477;-68
2022/06/13 00:32:00;;;;;;;6.50;2.17;;;23.90;71.00;;;;;;4993551;28;20451;-68
2022/06/13 00:34:26;;;;;;;5.10;2.57;;;23.90;71.00;;;;;;4994167;28;20420;-68
2022/06/13 00:36:52;;;;;;;5.60;2.50;;;23.90;71.10;;;;;;4993748;28;20500;-68
2022/06/13 00:39:18;;;;;;;5.07;2.27;;;23.80;71.00;;;;;;4977262;28;20457;-68
2022/06/13 00:41:45;;;;;;;3.87;3.03;;;23.80;71.10;;;;;;4993724;28;20966;-68
2022/06/13 00:44:20;;;;;;;4.07;2.40;;;23.80;71.10;;;;;;4994624;28;20445;-68
2022/06/13 00:46:46;;;;;;;4.13;2.50;;;23.80;71.10;;;;;;4993538;28;20424;-68
2022/06/13 00:49:21;;;;;;;3.00;2.53;;;23.80;71.20;;;;;;4993633;28;20505;-68
2022/06/13 00:51:55;;;;;;;4.70;2.57;;;23.80;71.40;;;;;;4993367;28;20527;-69
2022/06/13 00:54:24;;;;;;;5.20;2.60;;;23.70;71.40;;;;;;4993635;28;20481;-69
2022/06/13 00:56:51;;;;;;;3.00;2.20;;;23.70;71.40;;;;;;4977167;28;20896;-68
2022/06/13 00:59:22;;;;;;;5.20;2.67;;;23.70;71.40;;;;;;4977253;28;20471;-68
2022/06/13 01:01:51;;;;;;;3.97;2.97;;;23.70;71.40;;;;;;4992440;28;20832;-68
2022/06/13 01:04:19;;;;;;;2.73;2.33;;;23.70;71.60;;;;;;4994571;28;20749;-68
2022/06/13 01:06:48;;;;;;;4.37;2.70;;;23.60;71.60;;;;;;4994370;28;20404;-68
2022/06/13 01:11:16;;;;;;;2.90;2.20;;;23.60;71.50;;;;;;4994097;28;20410;-68
2022/06/13 01:12:08;;;;;;;3.47;2.70;;;23.60;71.70;;;;;;4993826;28;20533;-68
2022/06/13 01:14:40;;;;;;;4.33;2.57;;;23.60;71.80;;;;;;4977066;28;20445;-68
2022/06/13 01:17:21;;;;;;;5.30;2.70;;;23.50;71.90;;;;;;4993307;28;20754;-68
2022/06/13 01:19:56;;;;;;;3.90;2.87;;;23.50;71.90;;;;;;4992671;28;20527;-69
2022/06/13 01:22:49;;;;;;;5.23;3.20;;;23.50;72.00;;;;;;4977111;28;20445;-68
2022/06/13 01:25:29;;;;;;;6.20;3.53;;;23.50;72.00;;;;;;4992809;28;20898;-68
2022/06/13 01:28:26;;;;;;;4.90;2.83;;;23.40;72.00;;;;;;4988012;28;20450;-68
2022/06/13 01:31:04;;;;;;;3.43;2.73;;;23.40;72.00;;;;;;4957539;28;20488;-68
2022/06/13 01:33:51;;;;;;;3.27;2.97;;;23.40;72.20;;;;;;4973339;28;20500;-68
2022/06/13 01:36:19;;;;;;;4.70;3.27;;;23.40;72.20;;;;;;4973465;28;20433;-68
2022/06/13 01:39:07;;;;;;;4.03;3.30;;;23.40;72.30;;;;;;4972460;28;20494;-68
2022/06/13 01:42:19;;;;;;;4.97;3.60;;;23.40;72.30;;;;;;4967814;28;20457;-71
2022/06/13 01:45:03;;;;;;;3.43;3.03;;;23.30;72.20;;;;;;4984332;28;20951;-71
2022/06/13 01:48:06;;;;;;;4.50;3.10;;;23.30;72.40;;;;;;4955891;28;20794;-70
2022/06/13 01:50:47;;;;;;;3.80;2.80;;;23.30;72.50;;;;;;4980352;28;20453;-71
2022/06/13 01:53:34;;;;;;;4.20;3.10;;;23.20;72.50;;;;;;4991628;28;20437;-70
2022/06/13 01:56:09;;;;;;;3.97;2.83;;;23.20;72.70;;;;;;4983357;28;20508;-71
2022/06/13 01:58:55;;;;;;;4.03;2.83;;;23.20;72.70;;;;;;4992129;28;20455;-71
2022/06/13 02:02:05;;;;;;;4.73;3.17;;;23.20;72.70;;;;;;4981002;28;20481;-72
2022/06/13 02:04:38;;;;;;;3.67;2.90;;;23.20;72.60;;;;;;4951009;29;20437;-71
2022/06/13 02:07:12;;;;;;;3.30;2.70;;;23.10;72.70;;;;;;4989547;28;20427;-71
2022/06/13 02:10:06;;;;;;;6.60;3.50;;;23.10;73.30;;;;;;4988833;28;20461;-71
2022/06/13 02:12:38;;;;;;;4.47;2.90;;;23.10;73.00;;;;;;4975702;28;20460;-71
2022/06/13 02:15:17;;;;;;;5.07;3.40;;;23.10;73.00;;;;;;4996023;28;20433;-71
2022/06/13 02:17:54;;;;;;;5.40;3.30;;;23.10;72.90;;;;;;4995149;28;21154;-71
2022/06/13 02:20:25;;;;;;;4.10;3.17;;;23.10;72.80;;;;;;4976159;28;20479;-71
2022/06/13 02:22:58;;;;;;;4.10;3.03;;;23.00;72.80;;;;;;4991027;28;20914;-70
2022/06/13 02:25:38;;;;;;;3.50;2.90;;;23.00;72.80;;;;;;4976423;28;20414;-71
2022/06/13 02:28:14;;;;;;;5.17;2.90;;;23.00;72.90;;;;;;4996084;28;20807;-71
2022/06/13 02:30:50;;;;;;;4.50;3.00;;;23.00;73.10;;;;;;4996413;28;20835;-71
2022/06/13 02:33:24;;;;;;;5.70;3.40;;;23.00;73.20;;;;;;4994372;28;20436;-71
2022/06/13 02:36:23;;;;;;;4.13;3.00;;;23.00;73.30;;;;;;4978521;28;20420;-71
2022/06/13 02:39:21;;;;;;;4.70;2.93;;;22.90;73.20;;;;;;4973136;28;20465;-71
2022/06/13 02:41:55;;;;;;;2.70;2.50;;;22.90;73.30;;;;;;4975571;28;20457;-70
2022/06/13 02:44:39;;;;;;;3.97;2.70;;;22.90;73.40;;;;;;5002848;28;20490;-71
2022/06/13 02:47:27;;;;;;;4.17;3.00;;;22.90;73.40;;;;;;4998866;28;20416;-71
2022/06/13 02:50:02;;;;;;;4.70;2.70;;;22.90;73.50;;;;;;5004417;28;20412;-71
2022/06/13 02:52:39;;;;;;;2.70;2.50;;;22.80;73.50;;;;;;5004049;28;20911;-71
2022/06/13 02:55:11;;;;;;;4.50;2.50;;;22.80;73.50;;;;;;5005791;28;20442;-71
2022/06/13 02:57:37;;;;;;;5.37;2.73;;;22.80;73.60;;;;;;4983648;28;20432;-71
2022/06/13 03:00:36;;;;;;;2.60;2.37;;;22.80;73.60;;;;;;5003162;28;20457;-71
2022/06/13 03:03:04;;;;;;;3.07;2.17;;;22.70;73.50;;;;;;4999772;28;20526;-71
2022/06/13 03:05:51;;;;;;;4.60;3.10;;;22.70;73.60;;;;;;4996679;28;20491;-71
2022/06/13 03:08:42;;;;;;;6.60;2.57;;;22.70;73.70;;;;;;4992246;28;20458;-71
2022/06/13 03:11:16;;;;;;;3.60;2.50;;;22.70;73.60;;;;;;4994152;28;20449;-71
2022/06/13 03:13:54;;;;;;;3.97;2.60;;;22.60;73.60;;;;;;4993460;28;20473;-71
2022/06/13 03:17:04;;;;;;;4.70;2.33;;;22.60;73.70;;;;;;4977445;28;20995;-71
2022/06/13 03:19:51;;;;;;;2.60;2.40;;;22.60;73.70;;;;;;4989025;28;20492;-70
2022/06/13 03:22:42;;;;;;;3.10;2.70;;;22.60;73.90;;;;;;4993073;28;20469;-71
2022/06/13 03:25:35;;;;;;;3.70;2.87;;;22.60;73.90;;;;;;4994110;28;20895;-70
2022/06/13 03:28:09;;;;;;;4.17;2.47;;;22.60;74.00;;;;;;4974547;28;20438;-71
2022/06/13 03:30:44;;;;;;;3.07;2.07;;;22.50;73.90;;;;;;4975683;28;20442;-71
2022/06/13 03:33:40;;;;;;;2.83;2.20;;;22.50;73.90;;;;;;4993503;28;20498;-71
2022/06/13 03:36:39;;;;;;;4.67;2.23;;;22.50;74.80;;;;;;4976741;28;20809;-71
2022/06/13 03:39:30;;;;;;;2.03;1.83;;;22.50;74.10;;;;;;4993405;28;20469;-71
2022/06/13 03:42:14;;;;;;;3.27;2.63;;;22.50;74.20;;;;;;4982857;28;20460;-71
2022/06/13 03:44:57;;;;;;;3.43;2.40;;;22.50;74.30;;;;;;4994275;28;20449;-71
2022/06/13 03:47:34;;;;;;;3.33;2.23;;;22.50;74.30;;;;;;4993557;28;20825;-71
2022/06/13 03:50:14;;;;;;;4.23;2.40;;;22.40;74.20;;;;;;4994475;28;20436;-71
2022/06/13 03:52:49;;;;;;;3.03;2.40;;;22.40;74.40;;;;;;4993926;28;20444;-71
2022/06/13 03:55:47;;;;;;;3.00;2.27;;;22.40;74.40;;;;;;4993279;28;20408;-71
2022/06/13 03:58:30;;;;;;;3.13;2.67;;;22.40;74.50;;;;;;4992937;28;20441;-71
2022/06/13 04:01:23;;;;;;;2.83;2.30;;;22.40;74.60;;;;;;4976617;28;20465;-71
2022/06/13 04:03:50;;;;;;;2.77;2.10;;;22.30;74.60;;;;;;4993237;28;20457;-71
2022/06/13 04:06:43;;;;;;;4.77;2.30;;;22.30;74.60;;;;;;4968080;28;20520;-71
2022/06/13 04:09:25;;;;;;;3.80;2.23;;;22.30;74.60;;;;;;4989869;28;20479;-71
2022/06/13 04:12:26;;;;;;;3.10;2.17;;;22.30;74.70;;;;;;4987966;28;21065;-71
2022/06/13 04:15:17;;;;;;;4.10;2.30;;;22.30;74.80;;;;;;4990084;28;20458;-71
2022/06/13 04:17:48;;;;;;;2.90;2.23;;;22.30;74.90;;;;;;4992579;28;20468;-71
2022/06/13 04:20:17;;;;;;;3.73;2.70;;;22.20;74.90;;;;;;4992345;28;20468;-71
2022/06/13 04:22:55;;;;;;;2.63;2.43;;;22.20;75.00;;;;;;4993800;28;20436;-71
2022/06/13 04:25:36;;;;;;;2.93;2.30;;;22.20;75.00;;;;;;4992576;28;20764;-71
2022/06/13 04:28:18;;;;;;;2.30;2.10;;;22.20;75.10;;;;;;4992457;28;20430;-71
2022/06/13 04:30:51;;;;;;;2.43;2.23;;;22.20;75.10;;;;;;4993462;28;20958;-70
2022/06/13 04:33:33;;;;;;;3.10;2.33;;;22.20;75.30;;;;;;4976320;28;20437;-71
2022/06/13 04:36:03;;;;;;;6.23;2.43;;;22.20;75.40;;;;;;4974848;28;20791;-70
2022/06/13 04:38:30;;;;;;;2.77;2.57;;;22.20;75.50;;;;;;4993097;28;20405;-71
2022/06/13 04:41:01;;;;;;;4.60;2.63;;;22.10;75.50;;;;;;4992454;28;20452;-71
2022/06/13 04:43:39;;;;;;;2.83;2.23;;;22.10;75.70;;;;;;4976634;28;20440;-71
2022/06/13 04:46:10;;;;;;;4.33;2.60;;;22.10;75.90;;;;;;4993372;28;20438;-71
2022/06/13 04:48:42;;;;;;;3.90;2.40;;;22.10;76.00;;;;;;4976317;28;20451;-70
2022/06/13 04:51:18;;;;;;;2.97;2.50;;;22.10;76.20;;;;;;4992108;28;20457;-71
2022/06/13 04:54:11;;;;;;;5.10;2.50;;;22.10;76.40;;;;;;4993332;28;20505;-71
2022/06/13 04:56:37;;;;;;;2.40;2.20;;;22.10;76.60;;;;;;4975548;28;20453;-71
2022/06/13 04:59:04;;;;;;;5.10;2.93;;;22.10;76.80;;;;;;4991927;28;20880;-71
2022/06/13 05:01:35;;;;;;;2.47;2.00;;;22.00;76.90;;;;;;4991504;28;20965;-71
2022/06/13 05:04:08;;;;;;;4.30;2.80;;;22.00;77.00;;;;;;4975814;28;20465;-71
2022/06/13 05:06:39;;;;;;;4.97;2.80;;;22.00;77.20;;;;;;4991944;28;20883;-71
2022/06/13 05:09:17;;;;;;;3.57;2.53;;;22.00;77.30;;;;;;4992435;28;20420;-71
2022/06/13 05:11:56;;;;;;;2.60;2.33;;;22.00;77.50;;;;;;4991552;28;20480;-70
2022/06/13 05:14:37;;;;;;;3.63;2.23;;;22.00;77.70;;;;;;4975935;28;20471;-71
2022/06/13 05:17:40;;;;;;;4.80;2.50;;;22.00;77.80;;;;;;4991889;28;20497;-71
2022/06/13 05:20:36;;;;;;;3.23;2.37;;;22.00;78.00;;;;;;4992633;28;20453;-70
2022/06/13 05:23:35;;;;;;;4.00;2.40;;;22.00;78.10;;;;;;4988969;28;21040;-70
2022/06/13 05:26:02;;;;;;;3.67;2.30;;;22.00;78.40;;;;;;4940674;28;20461;-70
2022/06/13 05:28:31;;;;;;;6.03;2.70;;;21.90;78.30;;;;;;4976565;28;20440;-70
2022/06/13 05:31:05;;;;;;;2.80;2.13;;;21.90;78.60;;;;;;4991593;28;20536;-71
2022/06/13 05:33:35;;;;;;;2.67;2.40;;;21.90;78.80;;;;;;4992778;28;20894;-71
2022/06/13 05:36:04;;;;;;;6.30;2.00;;;21.90;78.80;;;;;;4975702;28;20950;-71
2022/06/13 05:38:36;;;;;;;3.07;2.10;;;21.90;79.00;;;;;;4991034;28;20428;-71
2022/06/13 05:41:05;;;;;;;3.50;2.47;;;21.90;79.10;;;;;;4991280;28;20539;-70
2022/06/13 05:43:33;;;;;;;6.00;2.70;;;21.90;79.20;;;;;;4992829;28;20417;-71
2022/06/13 05:46:00;;;;;;;3.10;2.27;;;21.90;79.30;;;;;;4991350;28;20515;-70
2022/06/13 05:48:26;;;;;;;3.80;2.53;;;21.90;79.40;;;;;;4995458;28;20432;-71
2022/06/13 05:50:55;;;;;;;6.37;2.10;;;21.80;79.30;;;;;;4995421;28;21033;-71
2022/06/13 05:53:25;;;;;;;6.33;2.40;;;21.90;80.40;;;;;;4994028;28;20987;-71
2022/06/13 05:55:56;;;;;;;4.80;2.47;;;21.80;79.50;;;;;;4979297;28;20446;-71
2022/06/13 05:58:25;;;;;;;5.70;2.40;;;21.80;79.70;;;;;;4978426;28;20796;-71
2022/06/13 06:00:54;;;;;;;2.70;2.27;;;21.80;79.90;;;;;;4978537;28;20536;-70
2022/06/13 06:03:21;;;;;;;7.60;2.70;;;21.80;79.90;;;;;;4995285;28;20793;-71
2022/06/13 06:05:48;;;;;;;4.90;2.53;;;21.80;80.00;;;;;;4995413;28;20437;-70
2022/06/13 06:08:27;;;;;;;5.30;2.20;;;21.80;80.00;;;;;;4995417;28;20405;-71
2022/06/13 06:10:59;;;;;;;6.10;2.97;;;21.80;80.10;;;;;;4995453;28;20528;-71
2022/06/13 06:13:29;;;;;;;3.50;2.43;;;21.80;80.40;;;;;;4995588;28;20428;-71
2022/06/13 06:15:59;;;;;;;3.57;2.70;;;21.80;80.70;;;;;;4995443;28;20425;-70
2022/06/13 06:18:29;;;;;;;4.83;2.97;;;21.70;80.90;;;;;;4995144;28;20409;-70
2022/06/13 06:20:56;;;;;;;4.20;2.77;;;21.70;81.10;;;;;;4994834;28;20980;-70
2022/06/13 06:23:26;;;;;;;6.97;3.27;;;21.70;81.20;;;;;;4996249;28;20463;-70
2022/06/13 06:25:52;;;;;;;4.23;2.90;;;21.70;81.30;;;;;;4979180;28;20443;-70
2022/06/13 06:28:21;;;;;;;5.67;2.67;;;21.70;81.60;;;;;;4995483;28;20437;-71
2022/06/13 06:30:50;;;;;;;5.57;2.90;;;21.70;81.60;;;;;;4978820;28;20452;-70
2022/06/13 06:33:18;;;;;;;3.37;2.57;;;21.70;81.60;;;;;;4996304;28;20443;-71
2022/06/13 06:35:44;;;;;;;4.47;3.00;;;21.70;81.60;;;;;;4993879;28;20437;-71
2022/06/13 06:38:15;;;;;;;4.43;2.93;;;21.70;81.60;;;;;;4995933;28;20429;-70
2022/06/13 06:40:44;;;;;;;6.27;3.00;;;21.60;81.60;;;;;;4996316;28;20463;-71
2022/06/13 06:43:12;;;;;;;4.27;2.70;;;21.60;81.70;;;;;;4994677;28;20444;-70
2022/06/13 06:45:38;;;;;;;4.30;2.63;;;21.60;81.90;;;;;;4994814;28;20404;-70
2022/06/13 06:48:04;;;;;;;6.87;3.60;;;21.60;82.10;;;;;;4995256;28;20439;-71
2022/06/13 06:50:37;;;;;;;4.97;3.30;;;21.60;82.20;;;;;;4996181;28;20512;-71
2022/06/13 06:53:08;;;;;;;3.70;2.90;;;21.60;82.10;;;;;;4989925;28;20448;-71
2022/06/13 07:01:08;;;;;;;3.70;2.90;;;21.50;81.90;;;;;;4995769;28;20789;-71
2022/06/13 07:03:34;;;;;;;4.30;3.07;;;21.60;82.30;;;;;;4994452;28;20432;-71
2022/06/13 07:06:00;;;;;;;4.73;3.00;;;21.60;82.40;;;;;;4995069;28;20427;-70
2022/06/13 07:08:28;;;;;;;6.23;2.97;;;21.60;82.60;;;;;;4995269;28;20532;-70
2022/06/13 07:11:53;;;;;;;6.60;3.20;;;21.60;82.40;;;;;;4977953;28;20441;-71
2022/06/13 07:13:47;;;;;;;5.83;3.27;;;21.60;82.60;;;;;;4975888;28;20429;-71
2022/06/13 07:16:13;;;;;;;4.13;2.70;;;21.50;82.60;;;;;;4974799;28;20445;-70
2022/06/13 07:18:41;;;;;;;5.10;3.00;;;21.50;82.90;;;;;;4958801;28;20426;-70
2022/06/13 07:21:08;;;;;;;4.77;3.23;;;21.50;83.10;;;;;;4975499;28;20452;-71
2022/06/13 07:23:39;;;;;;;4.83;3.83;;;21.50;83.20;;;;;;4990300;28;20442;-71
2022/06/13 07:26:08;;;;;;;6.67;3.70;;;21.50;83.20;;;;;;5003712;28;20912;-71
2022/06/13 07:28:36;;;;;;;4.33;3.80;;;21.50;83.30;;;;;;5013730;28;20479;-71
2022/06/13 07:31:05;;;;;;;7.67;3.60;;;21.50;83.50;;;;;;5014674;28;20944;-70
2022/06/13 07:33:33;;;;;;;8.30;3.87;;;21.50;83.80;;;;;;5009315;28;21020;-70
2022/06/13 07:35:59;;;;;;;6.60;3.07;;;21.50;84.00;;;;;;4974599;28;21130;-70
2022/06/13 07:38:25;;;;;;;4.43;3.10;;;21.50;83.80;;;;;;4974519;28;20915;-71
2022/06/13 07:41:01;;;;;;;6.90;3.20;;;21.50;83.60;;;;;;4993400;28;20440;-71
2022/06/13 07:43:30;;;;;;;5.13;3.00;;;21.50;83.40;;;;;;4993086;28;20464;-71
2022/06/13 07:45:58;;;;;;;4.43;3.00;;;21.50;83.20;;;;;;4994013;28;20447;-70
2022/06/13 07:48:28;;;;;;;6.30;3.27;;;21.50;83.10;;;;;;4989290;28;20443;-71
2022/06/13 07:50:56;;;;;;;7.80;4.20;;;21.50;83.20;;;;;;4993650;28;20448;-71
2022/06/13 07:53:22;;;;;;;8.07;3.70;;;21.50;83.50;;;;;;4994716;28;20417;-70
2022/06/13 07:55:48;;;;;;;6.80;3.57;;;21.50;83.50;;;;;;4977421;28;20437;-71
2022/06/13 07:58:18;;;;;;;6.33;3.40;;;21.50;83.60;;;;;;4976432;28;20445;-71
2022/06/13 08:00:49;;;;;;;3.80;3.40;;;21.50;83.60;;;;;;4990036;28;20471;-71
2022/06/13 08:03:29;;;;;;;5.57;3.77;;;21.50;83.60;;;;;;4960907;28;20448;-71
2022/06/13 08:05:59;;;;;;;5.03;3.37;;;21.50;83.40;;;;;;4974249;28;20474;-71
2022/06/13 08:08:26;;;;;;;4.00;3.50;;;21.50;83.30;;;;;;4994291;28;20416;-71
2022/06/13 08:10:57;;;;;;;5.90;3.63;;;21.50;83.30;;;;;;4992639;28;20942;-70
2022/06/13 08:13:25;;;;;;;6.60;3.73;;;21.50;83.30;;;;;;4976091;28;20437;-71
2022/06/13 08:15:53;;;;;;;5.50;3.90;;;21.50;83.40;;;;;;4994476;28;20496;-70
2022/06/13 08:18:19;;;;;;;4.90;3.97;;;21.50;83.60;;;;;;4993271;28;20437;-70
2022/06/13 08:20:45;;;;;;;6.00;4.20;;;21.50;83.80;;;;;;4993409;28;20484;-71
2022/06/13 08:23:14;;;;;;;6.30;4.57;;;21.50;83.90;;;;;;4994394;28;20432;-70
2022/06/13 08:25:43;;;;;;;7.77;4.07;;;21.50;83.90;;;;;;4976667;28;20488;-71
2022/06/13 08:28:14;;;;;;;5.80;4.00;;;21.50;83.80;;;;;;4977511;28;20420;-71
2022/06/13 08:30:52;;;;;;;6.93;3.50;;;21.60;83.90;;;;;;4993008;28;20451;-71
2022/06/13 08:33:23;;;;;;;6.83;3.70;;;21.60;83.90;;;;;;4994158;28;20832;-71
2022/06/13 08:35:54;;;;;;;8.17;4.00;;;21.60;83.90;;;;;;4994065;28;20432;-70
2022/06/13 08:38:28;;;;;;;7.47;4.50;;;21.60;84.00;;;;;;4966410;28;20452;-70
2022/06/13 08:41:14;;;;;;;7.07;4.00;;;21.60;84.00;;;;;;4992425;28;20447;-70
2022/06/13 08:43:57;;;;;;;5.23;3.90;;;21.60;84.00;;;;;;4992564;28;20406;-71
2022/06/13 08:46:25;;;;;;;7.70;5.00;;;21.60;84.00;;;;;;4980759;28;20445;-70
2022/06/13 08:49:11;;;;;;;5.40;3.83;;;21.60;83.90;;;;;;4984995;28;20425;-70
2022/06/13 08:51:55;;;;;;;5.87;4.60;;;21.60;84.00;;;;;;4992355;28;20456;-71
2022/06/13 08:54:34;;;;;;;6.90;3.63;;;21.60;83.90;;;;;;4992332;28;20977;-70
2022/06/13 08:57:11;;;;;;;11.60;4.20;;;21.60;83.90;;;;;;4986794;28;20437;-70
2022/06/13 08:59:45;;;;;;;9.40;4.50;;;21.70;83.90;;;;;;4991574;28;20556;-70
2022/06/13 09:02:25;;;;;;;7.37;4.37;;;21.70;83.90;;;;;;4978270;28;20452;-70
2022/06/13 09:05:02;;;;;;;5.83;4.13;;;21.70;83.80;;;;;;4981383;28;20419;-70
2022/06/13 09:07:39;;;;;;;4.93;3.70;;;21.60;83.60;;;;;;4976488;28;20409;-71
2022/06/13 09:10:39;;;;;;;9.63;5.20;;;21.70;83.60;;;;;;4992413;28;20433;-71
2022/06/13 09:13:19;;;;;;;8.13;4.63;;;21.70;83.60;;;;;;4976284;28;20460;-72
2022/06/13 09:15:59;;;;;;;6.97;4.10;;;21.70;83.50;;;;;;4974946;28;20520;-70
2022/06/13 09:18:52;;;;;;;6.03;3.77;;;21.70;83.40;;;;;;4992939;28;20482;-71
2022/06/13 09:21:22;;;;;;;5.40;3.70;;;21.70;83.40;;;;;;4980633;28;20463;-71
2022/06/13 09:24:12;;;;;;;5.00;3.90;;;21.70;83.30;;;;;;4991840;28;20953;-70
2022/06/13 09:27:01;;;;;;;5.60;4.10;;;21.70;83.20;;;;;;4993007;28;20483;-71
2022/06/13 09:29:52;;;;;;;5.60;3.90;;;21.70;83.20;;;;;;4992044;28;20408;-71
2022/06/13 09:32:35;;;;;;;7.17;3.50;;;21.70;83.10;;;;;;4992591;28;20457;-70
2022/06/13 09:35:15;;;;;;;5.10;3.90;;;21.70;83.10;;;;;;4992011;28;20464;-71
2022/06/13 09:37:45;;;;;;;6.47;4.10;;;21.70;83.10;;;;;;4989616;28;20514;-71
2022/06/13 09:40:14;;;;;;;6.80;4.10;;;21.70;83.10;;;;;;4992472;28;20462;-71
2022/06/13 09:42:59;;;;;;;5.90;3.90;;;21.70;83.10;;;;;;4990362;28;20428;-70
2022/06/13 09:45:52;;;;;;;4.80;3.33;;;21.70;83.10;;;;;;4992747;28;20436;-71
2022/06/13 09:48:53;;;;;;;5.10;3.40;;;21.70;83.10;;;;;;4977201;28;20540;-71
2022/06/13 09:51:38;;;;;;;5.93;4.83;;;21.70;83.20;;;;;;5236915;23;20487;-88
2022/06/13 09:54:29;;;;;;;3.90;3.30;;;21.70;83.20;;;;;;4959558;28;20750;-92
2022/06/13 09:57:31;;;;;;;6.67;4.20;;;21.70;83.00;;;;;;4960371;28;20500;-90
2022/06/13 10:00:10;;;;;;;6.70;4.03;;;21.70;83.00;;;;;;4969657;28;20533;-88
2022/06/13 10:02:57;;;;;;;6.73;3.67;;;21.70;82.90;;;;;;4982732;28;20472;-89
2022/06/13 10:05:47;;;;;;;5.80;3.50;;;21.70;82.80;;;;;;4963417;28;20447;-91
2022/06/13 10:08:23;;;;;;;8.23;3.30;;;21.80;82.90;;;;;;4977280;28;20474;-86
2022/06/13 10:10:56;;;;;;;5.07;3.57;;;21.80;82.80;;;;;;4981886;28;20555;-93
2022/06/13 10:13:33;;;;;;;5.73;3.00;;;21.80;82.50;;;;;;4975896;28;20446;-91
2022/06/13 10:16:22;;;;;;;5.77;3.80;;;21.80;82.40;;;;;;4956440;29;20429;-87
2022/06/13 10:19:12;;;;;;;9.80;3.77;;;21.80;82.30;;;;;;4940724;29;20488;-92
2022/06/13 10:21:43;;;;;;;4.40;3.47;;;21.90;82.10;;;;;;4956457;29;20553;-92
2022/06/13 10:24:30;;;;;;;5.23;3.30;;;21.90;81.80;;;;;;4959229;28;20445;-88
2022/06/13 10:27:25;;;;;;;6.87;3.30;;;22.00;81.60;;;;;;4976091;28;20426;-91
2022/06/13 10:30:11;;;;;;;5.70;4.20;;;21.90;81.40;;;;;;4983981;28;20515;-92
2022/06/13 10:33:12;;;;;;;6.17;3.10;;;22.00;81.40;;;;;;4996652;28;20421;-89
2022/06/13 10:35:50;;;;;;;8.40;4.43;;;22.00;81.30;;;;;;4999318;28;20416;-89
2022/06/13 10:38:34;;;;;;;5.13;3.37;;;22.00;81.00;;;;;;4978655;28;20440;-89
2022/06/13 10:45:15;;;;;;;5.37;3.13;;;22.00;80.90;;;;;;4989865;23;20472;-68
2022/06/13 10:47:58;;;;;;;4.23;2.80;;;22.00;80.90;;;;;;4991190;28;20545;-69
2022/06/13 10:50:44;;;;;;;8.70;3.77;;;22.10;80.70;;;;;;4975803;28;20504;-68
2022/06/13 10:53:18;;;;;;;7.27;3.10;;;22.10;80.50;;;;;;4954549;28;20456;-68
2022/06/13 10:55:46;;;;;;;8.27;3.73;;;22.10;80.30;;;;;;4975108;28;20561;-69
2022/06/13 10:58:20;;;;;;;6.43;3.20;;;22.10;80.00;;;;;;4975719;28;20421;-69
2022/06/13 11:01:08;;;;;;;4.70;3.33;;;22.10;79.60;;;;;;4974194;28;20563;-68
2022/06/13 11:03:38;;;;;;;5.77;2.83;;;22.20;79.60;;;;;;4973793;28;20469;-68
2022/06/13 11:06:17;;;;;;;4.37;2.70;;;22.20;79.60;;;;;;4967946;28;20899;-69
2022/06/13 11:08:43;;;;;;;6.37;2.90;;;22.20;79.50;;;;;;4973642;28;20458;-68
2022/06/13 11:11:16;;;;;;;4.10;2.20;;;22.20;79.40;;;;;;4974474;28;20449;-68
2022/06/13 11:13:53;;;;;;;5.23;3.03;;;22.20;80.20;;;;;;4974162;28;20422;-68
2022/06/13 11:22:40;;;;;;;6.00;2.60;;;22.20;79.10;;;;;;4954968;28;20863;-68
2022/06/13 11:25:27;;;;;;;3.20;2.40;;;22.20;79.10;;;;;;4973748;28;20867;-68
2022/06/13 11:28:02;;;;;;;3.00;2.70;;;22.30;79.20;;;;;;4958164;28;20437;-68
2022/06/13 11:30:28;;;;;;;3.07;2.60;;;22.30;79.20;;;;;;4973543;28;20491;-68
2022/06/13 11:33:14;;;;;;;2.87;2.43;;;22.30;79.10;;;;;;4974452;28;20414;-68
2022/06/13 11:35:56;;;;;;;4.90;2.50;;;22.20;78.80;;;;;;4973353;28;20461;-68
2022/06/13 11:38:30;;;;;;;8.83;2.60;;;22.30;78.70;;;;;;4983544;28;20504;-68
2022/06/13 11:41:32;;;;;;;3.73;2.80;;;22.30;78.50;;;;;;4973524;28;20466;-68
2022/06/13 11:44:04;;;;;;;5.20;2.67;;;22.30;78.50;;;;;;4954902;28;20921;-68
2022/06/13 11:46:41;;;;;;;4.00;2.80;;;22.30;78.30;;;;;;4974572;28;20488;-68
2022/06/13 11:49:32;;;;;;;2.60;1.90;;;22.30;78.20;;;;;;4957446;28;20454;-68
2022/06/13 11:53:35;;;;;;;3.60;2.17;;;22.30;78.20;;;;;;4956778;28;20504;-68
2022/06/13 11:55:09;;;;;;;9.13;2.60;;;22.40;78.00;;;;;;4974097;28;20513;-68
2022/06/13 11:57:43;;;;;;;2.93;1.97;;;22.40;78.00;;;;;;4973775;28;20445;-68
2022/06/13 12:00:23;;;;;;;3.53;2.10;;;22.40;77.70;;;;;;4972931;28;20469;-68
2022/06/13 12:02:49;;;;;;;3.10;2.00;;;22.40;77.60;;;;;;4987509;28;20432;-68
2022/06/13 12:05:21;;;;;;;2.50;2.27;;;22.40;77.30;;;;;;4972757;28;20427;-68
2022/06/13 12:08:00;;;;;;;4.07;2.20;;;22.40;77.20;;;;;;4973772;28;20426;-68
2022/06/13 12:10:33;;;;;;;3.00;2.10;;;22.40;77.10;;;;;;4953296;28;20519;-68
2022/06/13 12:12:59;;;;;;;3.73;2.07;;;22.40;77.20;;;;;;4955277;29;20502;-68
2022/06/13 12:16:06;;;;;;;3.87;1.90;;;22.50;77.30;;;;;;4954403;29;20988;-68
2022/06/13 12:18:58;;;;;;;2.27;2.07;;;22.40;76.90;;;;;;4948170;28;20451;-68
2022/06/13 12:21:57;;;;;;;4.63;1.97;;;22.50;76.70;;;;;;4953818;28;20494;-68
2022/06/13 12:24:49;;;;;;;3.50;2.07;;;22.50;76.50;;;;;;4957052;28;20445;-68
2022/06/13 12:27:48;;;;;;;2.20;1.77;;;22.50;76.50;;;;;;4973270;28;20915;-67
2022/06/13 12:30:31;;;;;;;5.97;2.30;;;22.50;76.60;;;;;;4974368;28;20457;-68
2022/06/13 12:33:14;;;;;;;3.73;1.97;;;22.50;76.80;;;;;;4972847;28;21000;-68
2022/06/13 12:36:13;;;;;;;4.30;2.37;;;22.50;76.60;;;;;;4972986;28;20797;-68
2022/06/13 12:38:45;;;;;;;2.20;1.67;;;22.50;76.80;;;;;;4953561;29;20421;-68
2022/06/13 12:41:29;;;;;;;2.10;1.77;;;22.50;75.80;;;;;;4939932;28;20464;-68
2022/06/13 12:44:22;;;;;;;3.70;2.00;;;22.50;75.30;;;;;;4972291;28;20455;-68
2022/06/13 12:47:16;;;;;;;2.27;1.40;;;22.50;74.70;;;;;;4972649;28;20445;-68
2022/06/13 12:50:13;;;;;;;1.87;1.67;;;22.50;74.80;;;;;;4973796;28;20430;-68
2022/06/13 12:52:53;;;;;;;4.40;1.60;;;22.50;74.90;;;;;;4962299;28;20432;-68
2022/06/13 12:55:39;;;;;;;2.20;1.70;;;22.60;75.00;;;;;;4957861;28;20506;-68
2022/06/13 12:58:32;;;;;;;2.13;1.87;;;22.60;74.70;;;;;;4952500;29;20450;-68
2022/06/13 13:01:20;;;;;;;3.13;1.77;;;22.60;74.10;;;;;;4961720;28;20470;-68
2022/06/13 13:04:13;;;;;;;3.43;1.53;;;22.60;73.90;;;;;;4972539;28;20436;-68
2022/06/13 13:06:49;;;;;;;3.97;1.83;;;22.60;73.90;;;;;;4970883;28;20830;-68
2022/06/13 13:09:34;;;;;;;3.80;1.63;;;22.70;73.30;;;;;;4973213;28;20433;-68
2022/06/13 13:12:25;;;;;;;2.07;1.60;;;22.70;73.00;;;;;;4955385;28;20536;-68
2022/06/13 13:15:29;;;;;;;2.03;1.20;;;22.70;73.40;;;;;;4973187;28;20793;-70
2022/06/13 13:18:18;;;;;;;2.03;1.47;;;22.80;72.90;;;;;;4966400;28;20480;-68
2022/06/13 13:20:46;;;;;;;1.83;1.20;;;22.80;73.30;;;;;;4957774;28;20473;-68
2022/06/13 13:23:44;;;;;;;2.00;1.60;;;22.80;73.60;;;;;;4971658;28;20787;-68
2022/06/13 13:26:33;;;;;;;2.63;1.57;;;22.80;73.30;;;;;;4955153;28;20436;-68
2022/06/13 13:29:36;;;;;;;2.30;1.20;;;22.80;73.20;;;;;;4954840;28;21023;-68
2022/06/13 13:32:27;;;;;;;2.30;1.00;;;22.90;72.90;;;;;;4971769;28;20618;-69
2022/06/13 13:35:18;;;;;;;1.70;1.20;;;22.90;73.00;;;;;;4979111;28;20434;-68
2022/06/13 13:37:50;;;;;;;2.60;1.40;;;22.90;73.20;;;;;;4972285;28;20839;-68
2022/06/13 13:40:33;;;;;;;1.93;1.63;;;23.00;73.10;;;;;;4970208;28;20485;-68
2022/06/13 13:43:13;;;;;;;3.30;1.70;;;23.00;73.10;;;;;;4962273;28;20422;-69
2022/06/13 13:45:48;;;;;;;1.50;1.10;;;23.00;73.40;;;;;;4970754;28;20862;-69
2022/06/13 13:48:28;;;;;;;2.40;1.43;;;23.00;73.30;;;;;;4971265;28;20845;-68
2022/06/13 13:51:17;;;;;;;3.70;1.50;;;23.00;72.70;;;;;;4971176;28;20943;-69
2022/06/13 13:53:54;;;;;;;3.40;1.50;;;23.00;72.30;;;;;;4970783;28;20429;-69
2022/06/13 13:56:34;;;;;;;1.70;1.40;;;23.10;72.30;;;;;;4939144;28;20462;-69
2022/06/13 13:59:01;;;;;;;3.70;1.53;;;23.10;71.90;;;;;;4955233;28;20485;-66
2022/06/13 14:01:37;;;;;;;1.90;1.70;;;23.10;71.70;;;;;;4971958;28;20500;-69